Wheat Ridge, CO (80034)

6:01 PM MDT on August 25, 2016 (GMT -0600)
APRSWXNET | | Change Station

Elev 5479 ft 39.77 °N, 105.10 °W | Updated 28 minutes ago

Mostly Cloudy
Mostly Cloudy
61 °F
Feels Like 61 °F
N
0
Wind Variable Wind from ESE
Gusts 0.0 mph

Today
High -- | Low -- °F
--% Chance of Precip.
Yesterday
High -- | Low -- °F
Precip. -- in
Pressure 30.25 in
Visibility 30.0 miles
Clouds Scattered Clouds 7000 ft
Mostly Cloudy 20000 ft
Dew Point 52 °F
Humidity 71%
Rainfall in
Snow Depth Not available.
6:22 AM 7:41 PM
Last Quarter, 40% visible
METAR KBJC 252349Z VRB05KT 30SM SCT070 BKN200 17/11 A3025
Pressure 30.25 in
Visibility 30.0 miles
Clouds Scattered Clouds 7000 ft
Mostly Cloudy 20000 ft
Dew Point 52 °F
Humidity 71%
Rainfall in
Snow Depth Not available.
6:22 AM 7:41 PM
Last Quarter, 40% visible
METAR KBJC 252349Z VRB05KT 30SM SCT070 BKN200 17/11 A3025
A tropical disturbance pushing toward the Bahamas, is expected to develop into a tropical depression or storm, and will likely target Florida and the Gulf Coast this weekend into next week.

Right now, the disturbance remains a broad area of low pressure pushing through the Dominican Republic and Haiti, headed toward the southeast Bahamas. Rainfall totals over 3 inches (with locally higher amounts) are expected in HispaƱiola, particularly over elevated terrain.

10-Day Weather Forecast

Almanac

Astronomy

Aug. 25, 2016 Rise Set
Actual Time
Civil Twilight
Nautical Twilight
Astronomical Twilight
Moon
Length of Visible Light
Length of Day
Tomorrow will be .
, % of the Moon is Illuminated

Today's Extremes

State Highs State Lows

Community

WunderPhotos

Upload Photos

1,934,970 photos uploaded!

WunderBlog® & News

Nearby

Air Quality

  Air Quality AQ Index Pollutant
Not available.

Snow Depth

Station Depth Elevation

Earthquake Activity

City Distance Mag. Time & Date
Minimum magnitude displayed is 2.5.

Coastal Water Temperatures

Place Temperature

Stations

Nearby Weather Stations

Station Location Temp. Windchill Dew Point Humidity Wind Precip. Elev Updated Type
                   

Watches & Warnings

There are currently no watches in effect.